Jump to content

Посадка с боковичком


DGambo
 Share

Recommended Posts

EDDH 010950Z 27016G32KT 9000 -SHRA FEW013TCU BKN018 07/05 Q0981 TEMPO 28025G45KT 4000 SHRAGS BKN008CB

 

EDDH 011220Z 29028G48KT 9000 -SHRA FEW011 BKN014 07/05 Q0984 TEMPO 29035G55KT 4000 SHRA BKN008

 

EDDH 011420Z 29029G43KT 8000 -SHRA BKN029 07/02 Q0990 TEMPO 30035G55KT

Link to comment
Share on other sites

 Share

  • Recently Browsing   0 members

    No registered users viewing this page.

×
×
  • Create New...